Time;durP1;ratioP1;P1;durP2;ratioP2;P2;SDS_P1;SDS_P2;PMS_P1;PMS_P2;Temp;Humidity;BMP_temperature;BMP_pressure;BME280_temperature;BME280_humidity;BME280_pressure;Samples;Min_cycle;Max_cycle;Signal;HPM_P1;HPM_P2
2023/10/30 00:01:08;;;;;;;7.37;1.40;;;;;;;;;;5030440;28;21012;-59
2023/10/30 00:03:34;;;;;;;6.60;1.53;;;;;;;;;;5049979;28;21022;-59
2023/10/30 00:05:59;;;;;;;6.78;1.60;;;;;;;;;;5046578;28;20416;-58
2023/10/30 00:08:24;;;;;;;7.17;1.57;;;;;;;;;;5048392;28;20394;-58
2023/10/30 00:10:50;;;;;;;8.57;1.80;;;;;;;;;;5049216;28;20401;-59
2023/10/30 00:13:15;;;;;;;9.00;1.60;;;;;;;;;;5047013;28;20412;-59
2023/10/30 00:15:40;;;;;;;9.07;1.60;;;;;;;;;;5047918;28;20420;-59
2023/10/30 00:18:06;;;;;;;6.88;1.77;;;;;;;;;;5048618;28;20810;-59
2023/10/30 00:20:31;;;;;;;7.73;1.80;;;;;;;;;;5047461;28;20396;-58
2023/10/30 00:22:56;;;;;;;7.33;1.47;;;;;;;;;;5047685;28;20405;-59
2023/10/30 00:25:22;;;;;;;7.20;1.70;;;;;;;;;;5048134;28;20757;-58
2023/10/30 00:27:47;;;;;;;7.27;1.50;;;;;;;;;;5048348;28;20492;-59
2023/10/30 00:30:13;;;;;;;7.40;1.60;;;;;;;;;;5046163;28;21188;-59
2023/10/30 00:32:39;;;;;;;8.27;1.70;;;;;;;;;;5048019;28;20520;-59
2023/10/30 00:35:04;;;;;;;8.05;1.90;;;;;;;;;;5047665;28;20536;-59
2023/10/30 00:37:30;;;;;;;6.70;1.55;;;;;;;;;;5046411;28;20405;-58
2023/10/30 00:39:56;;;;;;;8.00;1.80;;;;;;;;;;5048423;28;20417;-58
2023/10/30 00:42:25;;;;;;;7.88;1.80;;;;;;;;;;5047886;28;20432;-59
2023/10/30 00:44:50;;;;;;;7.07;1.67;;;;;;;;;;5046964;28;20401;-59
2023/10/30 00:47:16;;;;;;;7.43;2.00;;;;;;;;;;5046534;28;20758;-59
2023/10/30 00:49:41;;;;;;;7.93;1.70;;;;;;;;;;5048074;28;20904;-58
2023/10/30 00:52:06;;;;;;;8.30;1.93;;;;;;;;;;5047239;28;20402;-59
2023/10/30 00:54:32;;;;;;;8.50;1.87;;;;;;;;;;5046465;28;20556;-58
2023/10/30 00:56:57;;;;;;;9.27;1.88;;;;;;;;;;5047827;28;20405;-58
2023/10/30 00:59:22;;;;;;;8.17;2.10;;;;;;;;;;5047983;28;20386;-58
2023/10/30 01:01:48;;;;;;;10.37;1.87;;;;;;;;;;5050019;28;20437;-59
2023/10/30 01:04:14;;;;;;;8.37;1.80;;;;;;;;;;5045279;28;20410;-59
2023/10/30 01:06:39;;;;;;;10.23;2.13;;;;;;;;;;5064249;28;20398;-59
2023/10/30 01:09:04;;;;;;;9.10;1.93;;;;;;;;;;5060023;28;20762;-59
2023/10/30 01:11:29;;;;;;;10.80;2.00;;;;;;;;;;5062518;28;20496;-59
2023/10/30 01:13:55;;;;;;;11.25;2.38;;;;;;;;;;5064172;28;21059;-59
2023/10/30 01:16:20;;;;;;;11.00;2.00;;;;;;;;;;5061159;28;20475;-58
2023/10/30 01:18:45;;;;;;;9.77;2.10;;;;;;;;;;5059796;28;20418;-59
2023/10/30 01:21:11;;;;;;;7.13;1.60;;;;;;;;;;5063358;28;20549;-58
2023/10/30 01:23:36;;;;;;;10.50;2.40;;;;;;;;;;5063156;28;20399;-59
2023/10/30 01:26:02;;;;;;;9.07;2.10;;;;;;;;;;5059227;28;21749;-60
2023/10/30 01:28:27;;;;;;;10.20;1.80;;;;;;;;;;5063640;28;20403;-58
2023/10/30 01:30:52;;;;;;;10.60;2.03;;;;;;;;;;5062724;28;20731;-58
2023/10/30 01:33:17;;;;;;;8.63;1.47;;;;;;;;;;5058485;28;20409;-58
2023/10/30 01:35:43;;;;;;;10.50;2.30;;;;;;;;;;5063046;28;20535;-59
2023/10/30 01:38:08;;;;;;;7.27;1.93;;;;;;;;;;5063060;28;20397;-58
2023/10/30 01:40:35;;;;;;;8.50;1.80;;;;;;;;;;5059468;28;20449;-58
2023/10/30 01:43:06;;;;;;;9.52;1.80;;;;;;;;;;5060800;28;20457;-59
2023/10/30 01:45:31;;;;;;;9.70;2.10;;;;;;;;;;5062839;28;20392;-59
2023/10/30 01:47:57;;;;;;;7.05;1.60;;;;;;;;;;5062343;28;20400;-58
2023/10/30 01:50:22;;;;;;;9.87;2.00;;;;;;;;;;5059251;28;20408;-59
2023/10/30 01:52:47;;;;;;;7.70;1.50;;;;;;;;;;5063078;28;20432;-58
2023/10/30 01:55:12;;;;;;;12.63;2.03;;;;;;;;;;5063138;28;20443;-59
2023/10/30 01:57:38;;;;;;;9.63;1.97;;;;;;;;;;5040089;28;20743;-59
2023/10/30 02:00:04;;;;;;;8.13;1.67;;;;;;;;;;5062417;28;20456;-59
2023/10/30 02:02:30;;;;;;;10.02;2.13;;;;;;;;;;5063139;28;20796;-58
2023/10/30 02:04:55;;;;;;;8.73;1.70;;;;;;;;;;5059504;28;20416;-58
2023/10/30 02:07:20;;;;;;;9.30;1.80;;;;;;;;;;5061194;28;20795;-59
2023/10/30 02:09:46;;;;;;;8.67;2.23;;;;;;;;;;5063519;28;20399;-59
2023/10/30 02:12:11;;;;;;;9.95;2.00;;;;;;;;;;5060143;28;20494;-59
2023/10/30 02:14:36;;;;;;;9.53;1.97;;;;;;;;;;5060169;28;20405;-59
2023/10/30 02:17:02;;;;;;;8.73;2.00;;;;;;;;;;5062472;28;20412;-58
2023/10/30 02:19:27;;;;;;;11.50;1.80;;;;;;;;;;5061493;28;20391;-59
2023/10/30 02:21:53;;;;;;;7.87;1.60;;;;;;;;;;5058358;28;20878;-59
2023/10/30 02:24:19;;;;;;;9.27;1.75;;;;;;;;;;5061735;28;20496;-59
2023/10/30 02:26:45;;;;;;;9.02;1.70;;;;;;;;;;5062462;28;20388;-58
2023/10/30 02:29:11;;;;;;;10.07;1.90;;;;;;;;;;5056754;28;20469;-59
2023/10/30 02:31:36;;;;;;;9.43;1.57;;;;;;;;;;5063020;28;20636;-59
2023/10/30 02:34:02;;;;;;;9.18;1.95;;;;;;;;;;5061791;28;20446;-59
2023/10/30 02:36:27;;;;;;;8.10;1.97;;;;;;;;;;5059445;28;20477;-59
2023/10/30 02:38:53;;;;;;;9.65;1.80;;;;;;;;;;5061307;28;20424;-59
2023/10/30 02:41:19;;;;;;;9.23;1.83;;;;;;;;;;5054678;28;20509;-59
2023/10/30 02:43:44;;;;;;;8.63;1.98;;;;;;;;;;5060313;28;20415;-59
2023/10/30 02:46:09;;;;;;;9.97;1.80;;;;;;;;;;5059453;28;20404;-59
2023/10/30 02:48:34;;;;;;;9.20;1.73;;;;;;;;;;5061860;28;20400;-59
2023/10/30 02:51:00;;;;;;;8.93;2.10;;;;;;;;;;5062280;28;20399;-58
2023/10/30 02:53:25;;;;;;;9.70;1.87;;;;;;;;;;5049943;28;20430;-59
2023/10/30 02:55:50;;;;;;;10.63;2.60;;;;;;;;;;5065672;28;20403;-58
2023/10/30 02:58:16;;;;;;;10.77;1.90;;;;;;;;;;5066486;28;20403;-58
2023/10/30 03:00:41;;;;;;;9.47;1.80;;;;;;;;;;5061750;28;20471;-58
2023/10/30 03:03:06;;;;;;;9.40;1.90;;;;;;;;;;5064256;28;20403;-59
2023/10/30 03:05:32;;;;;;;10.77;1.67;;;;;;;;;;5066438;28;20397;-59
2023/10/30 03:07:57;;;;;;;8.25;2.03;;;;;;;;;;5063022;28;20486;-58
2023/10/30 03:10:22;;;;;;;10.87;2.10;;;;;;;;;;5063935;28;20479;-59
2023/10/30 03:12:48;;;;;;;8.90;1.50;;;;;;;;;;5066616;28;20480;-58
2023/10/30 03:15:13;;;;;;;8.83;1.80;;;;;;;;;;5063724;28;20404;-58
2023/10/30 03:17:38;;;;;;;8.47;1.90;;;;;;;;;;5062009;28;20916;-59
2023/10/30 03:20:05;;;;;;;7.32;1.63;;;;;;;;;;5065015;28;20408;-58
2023/10/30 03:22:30;;;;;;;9.73;1.88;;;;;;;;;;5064745;28;20901;-59
2023/10/30 03:24:55;;;;;;;8.57;1.70;;;;;;;;;;5061646;28;20418;-58
2023/10/30 03:27:21;;;;;;;8.90;1.87;;;;;;;;;;5065649;28;20712;-59
2023/10/30 03:29:46;;;;;;;10.27;1.83;;;;;;;;;;5060813;28;20421;-58
2023/10/30 03:32:11;;;;;;;11.17;1.80;;;;;;;;;;5060346;28;20502;-59
2023/10/30 03:34:36;;;;;;;8.07;1.40;;;;;;;;;;5065696;28;21045;-58
2023/10/30 03:37:02;;;;;;;8.45;1.77;;;;;;;;;;5065030;28;20451;-59
2023/10/30 03:39:28;;;;;;;8.30;1.73;;;;;;;;;;5061483;28;20404;-58
2023/10/30 03:41:53;;;;;;;7.23;1.80;;;;;;;;;;5069104;28;20439;-58
2023/10/30 03:44:20;;;;;;;8.38;1.52;;;;;;;;;;5070455;28;20402;-58
2023/10/30 03:46:45;;;;;;;8.20;1.75;;;;;;;;;;5062275;28;20396;-59
2023/10/30 03:49:11;;;;;;;6.27;1.53;;;;;;;;;;5065539;28;20760;-59
2023/10/30 03:51:36;;;;;;;7.33;1.63;;;;;;;;;;5065244;28;20396;-58
2023/10/30 03:54:01;;;;;;;6.40;1.40;;;;;;;;;;5032055;28;20552;-60
2023/10/30 03:56:27;;;;;;;7.70;1.40;;;;;;;;;;5037337;28;20409;-58
2023/10/30 03:58:52;;;;;;;8.15;1.65;;;;;;;;;;5029675;28;20407;-59
2023/10/30 04:01:17;;;;;;;9.73;1.80;;;;;;;;;;5027158;28;20485;-58
2023/10/30 04:03:43;;;;;;;10.53;1.73;;;;;;;;;;5019142;28;20460;-59
2023/10/30 04:06:10;;;;;;;6.78;1.42;;;;;;;;;;5016005;28;20685;-59
2023/10/30 04:08:35;;;;;;;7.03;1.70;;;;;;;;;;5025574;28;20399;-58
2023/10/30 04:11:07;;;;;;;6.47;1.40;;;;;;;;;;5027806;28;20409;-59
2023/10/30 04:13:32;;;;;;;7.80;1.50;;;;;;;;;;5026122;28;20405;-59
2023/10/30 04:15:57;;;;;;;6.38;1.40;;;;;;;;;;5026779;28;20411;-58
2023/10/30 04:18:23;;;;;;;8.70;1.50;;;;;;;;;;5027541;28;20401;-59
2023/10/30 04:20:48;;;;;;;7.43;1.80;;;;;;;;;;5026269;28;20407;-59
2023/10/30 04:23:13;;;;;;;11.67;1.90;;;;;;;;;;5022503;28;21201;-58
2023/10/30 04:25:38;;;;;;;8.20;1.90;;;;;;;;;;5020673;28;20691;-58
2023/10/30 04:28:04;;;;;;;6.97;1.43;;;;;;;;;;5021651;28;20779;-58
2023/10/30 04:30:29;;;;;;;10.18;1.70;;;;;;;;;;5021830;28;21043;-58
2023/10/30 04:32:55;;;;;;;9.47;2.00;;;;;;;;;;5027854;28;20411;-57
2023/10/30 04:35:20;;;;;;;7.43;2.07;;;;;;;;;;5026020;28;20418;-58
2023/10/30 04:37:45;;;;;;;8.27;2.10;;;;;;;;;;5026216;28;20403;-58
2023/10/30 04:40:11;;;;;;;7.28;1.75;;;;;;;;;;5025905;28;20411;-58
2023/10/30 04:42:36;;;;;;;8.85;1.70;;;;;;;;;;5027647;28;20596;-58
2023/10/30 04:45:01;;;;;;;10.07;1.83;;;;;;;;;;5024360;28;21212;-58
2023/10/30 04:47:26;;;;;;;9.37;1.60;;;;;;;;;;5019089;28;20478;-58
2023/10/30 04:49:52;;;;;;;9.30;1.60;;;;;;;;;;5020405;28;20414;-58
2023/10/30 04:52:17;;;;;;;8.57;1.67;;;;;;;;;;5018968;28;20401;-58
2023/10/30 04:54:42;;;;;;;8.37;1.67;;;;;;;;;;5025357;28;20829;-58
2023/10/30 04:57:08;;;;;;;9.83;1.70;;;;;;;;;;5026868;28;20399;-58
2023/10/30 04:59:33;;;;;;;7.68;1.63;;;;;;;;;;5026734;28;20521;-58
2023/10/30 05:02:01;;;;;;;11.30;1.67;;;;;;;;;;5025268;28;21262;-58
2023/10/30 05:04:26;;;;;;;7.82;1.80;;;;;;;;;;5025568;28;20480;-58
2023/10/30 05:06:52;;;;;;;9.17;1.80;;;;;;;;;;5027795;28;20518;-58
2023/10/30 05:09:17;;;;;;;11.53;1.90;;;;;;;;;;5019512;28;20457;-58
2023/10/30 05:11:42;;;;;;;11.03;2.07;;;;;;;;;;5018196;28;20419;-58
2023/10/30 05:14:08;;;;;;;7.90;1.97;;;;;;;;;;5020151;28;20449;-59
2023/10/30 05:16:33;;;;;;;10.52;2.10;;;;;;;;;;5023278;28;20486;-58
2023/10/30 05:18:59;;;;;;;9.57;1.90;;;;;;;;;;5024211;28;20818;-58
2023/10/30 05:21:24;;;;;;;7.67;1.70;;;;;;;;;;5027224;28;20397;-58
2023/10/30 05:23:49;;;;;;;11.73;2.10;;;;;;;;;;5031890;28;20420;-58
2023/10/30 05:26:15;;;;;;;10.27;1.60;;;;;;;;;;5024972;28;20490;-58
2023/10/30 05:28:40;;;;;;;7.97;1.70;;;;;;;;;;5026523;28;20487;-58
2023/10/30 05:31:06;;;;;;;8.93;1.43;;;;;;;;;;5022453;28;20413;-58
2023/10/30 05:33:31;;;;;;;7.32;1.50;;;;;;;;;;5018100;28;20440;-58
2023/10/30 05:35:57;;;;;;;7.87;1.77;;;;;;;;;;5017274;28;20402;-58
2023/10/30 05:38:22;;;;;;;9.43;1.90;;;;;;;;;;5021324;28;20784;-58
2023/10/30 05:40:47;;;;;;;7.88;1.40;;;;;;;;;;5025201;28;20530;-58
2023/10/30 05:43:13;;;;;;;8.57;1.60;;;;;;;;;;5024514;28;20403;-58
2023/10/30 05:45:39;;;;;;;7.63;1.80;;;;;;;;;;5026690;28;20408;-58
2023/10/30 05:48:04;;;;;;;8.03;1.50;;;;;;;;;;5024488;28;20442;-58
2023/10/30 05:50:29;;;;;;;8.30;2.10;;;;;;;;;;5025125;28;21121;-58
2023/10/30 05:52:55;;;;;;;10.90;2.00;;;;;;;;;;5020713;28;20399;-58
2023/10/30 05:55:20;;;;;;;9.45;1.80;;;;;;;;;;5014782;28;20405;-58
2023/10/30 05:57:46;;;;;;;10.37;1.93;;;;;;;;;;5017679;28;20403;-58
2023/10/30 06:00:12;;;;;;;9.60;2.23;;;;;;;;;;5017093;28;20442;-58
2023/10/30 06:02:37;;;;;;;10.43;1.67;;;;;;;;;;5040102;28;20496;-58
2023/10/30 06:05:05;;;;;;;7.37;1.60;;;;;;;;;;5030469;28;20406;-59
2023/10/30 06:07:30;;;;;;;9.43;1.90;;;;;;;;;;5024217;28;20766;-58
2023/10/30 06:09:55;;;;;;;6.80;1.53;;;;;;;;;;5026128;28;20602;-58
2023/10/30 06:12:21;;;;;;;11.07;1.73;;;;;;;;;;5024833;28;20393;-58
2023/10/30 06:14:46;;;;;;;11.27;1.70;;;;;;;;;;5024605;28;20608;-58
2023/10/30 06:17:12;;;;;;;9.37;1.87;;;;;;;;;;5020489;28;20407;-58
2023/10/30 06:19:37;;;;;;;10.90;1.90;;;;;;;;;;5017949;28;20906;-58
2023/10/30 06:22:03;;;;;;;8.00;1.70;;;;;;;;;;5016059;28;20387;-58
2023/10/30 06:24:28;;;;;;;10.02;1.77;;;;;;;;;;5023028;28;20450;-58
2023/10/30 06:26:53;;;;;;;9.13;1.90;;;;;;;;;;5026453;28;20406;-58
2023/10/30 06:29:19;;;;;;;10.17;1.60;;;;;;;;;;5042421;28;20971;-58
2023/10/30 06:31:44;;;;;;;7.20;1.37;;;;;;;;;;5046412;28;20406;-58
2023/10/30 06:34:09;;;;;;;9.43;1.90;;;;;;;;;;5041440;28;20943;-58
2023/10/30 06:36:34;;;;;;;9.33;1.80;;;;;;;;;;5044236;28;20400;-58
2023/10/30 06:39:01;;;;;;;10.23;1.80;;;;;;;;;;5042438;28;20409;-58
2023/10/30 06:41:26;;;;;;;6.43;1.30;;;;;;;;;;5042516;28;20397;-57
2023/10/30 06:43:51;;;;;;;8.57;1.60;;;;;;;;;;5042150;28;20500;-57
2023/10/30 06:46:17;;;;;;;9.17;1.70;;;;;;;;;;5042175;28;20412;-57
2023/10/30 06:48:42;;;;;;;7.10;1.83;;;;;;;;;;5040475;28;20509;-58
2023/10/30 06:51:07;;;;;;;8.60;1.37;;;;;;;;;;5040895;28;20409;-57
2023/10/30 06:53:33;;;;;;;9.23;2.13;;;;;;;;;;5039964;28;20405;-57
2023/10/30 06:55:58;;;;;;;9.83;1.80;;;;;;;;;;5039787;28;20782;-58
2023/10/30 06:58:23;;;;;;;9.47;1.90;;;;;;;;;;5042761;28;20772;-57
2023/10/30 07:00:49;;;;;;;9.43;1.73;;;;;;;;;;5039999;28;20463;-57
2023/10/30 07:03:14;;;;;;;10.03;2.00;;;;;;;;;;5037555;28;20439;-58
2023/10/30 07:05:40;;;;;;;6.90;1.80;;;;;;;;;;5043287;28;20394;-58
2023/10/30 07:08:05;;;;;;;10.80;2.08;;;;;;;;;;5039294;28;20508;-57
2023/10/30 07:10:30;;;;;;;9.83;2.00;;;;;;;;;;5039167;28;20399;-58
2023/10/30 07:12:56;;;;;;;8.33;1.90;;;;;;;;;;5042131;28;20414;-58
2023/10/30 07:15:21;;;;;;;8.97;1.77;;;;;;;;;;5041449;28;20401;-57
2023/10/30 07:17:47;;;;;;;9.53;2.30;;;;;;;;;;5043791;28;20472;-57
2023/10/30 07:20:12;;;;;;;9.07;1.83;;;;;;;;;;5041648;28;20911;-58
2023/10/30 07:22:38;;;;;;;10.13;2.03;;;;;;;;;;5044938;28;20879;-58
2023/10/30 07:25:03;;;;;;;8.37;1.70;;;;;;;;;;5046142;28;20469;-58
2023/10/30 07:27:28;;;;;;;8.03;1.83;;;;;;;;;;5043612;28;20409;-58
2023/10/30 07:29:54;;;;;;;8.97;1.70;;;;;;;;;;5045084;28;20764;-58
2023/10/30 07:32:19;;;;;;;10.67;1.90;;;;;;;;;;5045588;28;22944;-58
2023/10/30 07:34:44;;;;;;;11.70;2.20;;;;;;;;;;5045070;28;20847;-58
2023/10/30 07:37:10;;;;;;;10.00;1.80;;;;;;;;;;5043789;28;20503;-59
2023/10/30 07:39:35;;;;;;;8.40;1.90;;;;;;;;;;5045882;28;20392;-58
2023/10/30 07:42:01;;;;;;;9.33;2.03;;;;;;;;;;5047263;28;20482;-59
2023/10/30 07:44:26;;;;;;;8.93;2.03;;;;;;;;;;5046877;28;21490;-58
2023/10/30 07:46:52;;;;;;;9.63;1.90;;;;;;;;;;5049492;28;20405;-58
2023/10/30 07:49:17;;;;;;;9.63;1.80;;;;;;;;;;5049084;28;20476;-59
2023/10/30 07:51:42;;;;;;;10.63;1.77;;;;;;;;;;5047104;28;20788;-58
2023/10/30 07:54:07;;;;;;;9.63;1.87;;;;;;;;;;5048718;28;20464;-58
2023/10/30 07:56:33;;;;;;;8.00;1.57;;;;;;;;;;5049678;28;20404;-59
2023/10/30 07:58:58;;;;;;;11.07;2.13;;;;;;;;;;5047613;28;20413;-58
2023/10/30 08:01:24;;;;;;;9.03;1.63;;;;;;;;;;5047382;28;20888;-58
2023/10/30 08:03:49;;;;;;;8.67;1.60;;;;;;;;;;5049691;28;20432;-58
2023/10/30 08:06:14;;;;;;;8.30;2.03;;;;;;;;;;5047882;28;20463;-58
2023/10/30 08:08:40;;;;;;;8.25;1.77;;;;;;;;;;5047317;28;20402;-58
2023/10/30 08:11:05;;;;;;;10.80;2.00;;;;;;;;;;5048980;28;20425;-59
2023/10/30 08:13:31;;;;;;;9.57;2.07;;;;;;;;;;5049045;28;20416;-58
2023/10/30 08:15:56;;;;;;;9.85;1.95;;;;;;;;;;5045889;28;20764;-58
2023/10/30 08:18:21;;;;;;;9.43;1.80;;;;;;;;;;5048793;28;20429;-59
2023/10/30 08:20:47;;;;;;;10.43;1.80;;;;;;;;;;5048745;28;20748;-58
2023/10/30 08:23:12;;;;;;;7.53;1.60;;;;;;;;;;5046731;28;20463;-59
2023/10/30 08:25:37;;;;;;;9.47;1.83;;;;;;;;;;5047892;28;20409;-58
2023/10/30 08:28:03;;;;;;;10.45;1.85;;;;;;;;;;5051166;28;20394;-58
2023/10/30 08:30:29;;;;;;;10.43;1.97;;;;;;;;;;5049062;28;20475;-58
2023/10/30 08:32:54;;;;;;;9.73;1.80;;;;;;;;;;5041407;28;20403;-58
2023/10/30 08:35:19;;;;;;;9.13;2.17;;;;;;;;;;5046448;28;20368;-58
2023/10/30 08:37:45;;;;;;;8.70;1.83;;;;;;;;;;5048333;28;20916;-58
2023/10/30 08:40:10;;;;;;;8.97;1.83;;;;;;;;;;5047262;28;20394;-58
2023/10/30 08:42:35;;;;;;;9.13;1.93;;;;;;;;;;5046646;28;20417;-58
2023/10/30 08:45:01;;;;;;;9.47;2.10;;;;;;;;;;5046690;28;21285;-59
2023/10/30 08:47:26;;;;;;;9.90;2.37;;;;;;;;;;5046917;28;20404;-58
2023/10/30 08:49:51;;;;;;;9.25;1.83;;;;;;;;;;5046686;28;20428;-58
2023/10/30 08:52:17;;;;;;;8.30;2.07;;;;;;;;;;5047311;28;20803;-58
2023/10/30 08:54:43;;;;;;;6.90;1.80;;;;;;;;;;5047975;28;20413;-58
2023/10/30 08:57:08;;;;;;;11.23;2.37;;;;;;;;;;5045746;28;20401;-58
2023/10/30 08:59:38;;;;;;;11.63;2.13;;;;;;;;;;5047793;28;20428;-58
2023/10/30 09:02:05;;;;;;;7.43;1.55;;;;;;;;;;5047214;28;20409;-58
2023/10/30 09:04:31;;;;;;;8.90;1.80;;;;;;;;;;5047809;28;20386;-58
2023/10/30 09:06:56;;;;;;;9.23;1.90;;;;;;;;;;5046350;28;20405;-58
2023/10/30 09:09:21;;;;;;;8.70;1.70;;;;;;;;;;5047382;28;20404;-58
2023/10/30 09:11:47;;;;;;;9.67;1.80;;;;;;;;;;5047596;28;20982;-58
2023/10/30 09:14:12;;;;;;;10.13;2.10;;;;;;;;;;5045157;28;21002;-58
2023/10/30 09:16:38;;;;;;;7.63;1.80;;;;;;;;;;5047585;28;20425;-58
2023/10/30 09:19:03;;;;;;;8.57;2.00;;;;;;;;;;5047731;28;20823;-58
2023/10/30 09:21:28;;;;;;;10.70;2.33;;;;;;;;;;5046662;28;20481;-58
2023/10/30 09:23:54;;;;;;;11.87;2.27;;;;;;;;;;5046498;28;20409;-58
2023/10/30 09:26:19;;;;;;;8.33;2.07;;;;;;;;;;5045679;28;20433;-58
2023/10/30 09:28:44;;;;;;;9.80;1.93;;;;;;;;;;5046912;28;20484;-58
2023/10/30 09:31:10;;;;;;;7.93;1.90;;;;;;;;;;5045308;28;20405;-58
2023/10/30 09:33:35;;;;;;;9.13;2.07;;;;;;;;;;5047180;28;20415;-58
2023/10/30 09:36:01;;;;;;;9.00;1.80;;;;;;;;;;5044152;28;20959;-59
2023/10/30 09:38:26;;;;;;;9.10;1.80;;;;;;;;;;5042447;28;20433;-58
2023/10/30 09:40:56;;;;;;;8.98;1.60;;;;;;;;;;5046607;28;21018;-58
2023/10/30 09:43:23;;;;;;;7.68;1.80;;;;;;;;;;5044939;28;20469;-58
2023/10/30 09:45:49;;;;;;;8.13;1.80;;;;;;;;;;5045161;28;20409;-58
2023/10/30 09:48:14;;;;;;;9.30;1.90;;;;;;;;;;5044781;28;21514;-58
2023/10/30 09:50:39;;;;;;;7.23;2.00;;;;;;;;;;5047166;28;20581;-58
2023/10/30 09:53:05;;;;;;;11.27;2.20;;;;;;;;;;5044520;28;20825;-58
2023/10/30 09:55:30;;;;;;;8.67;2.20;;;;;;;;;;5044090;28;20440;-58
2023/10/30 09:57:55;;;;;;;10.43;2.10;;;;;;;;;;5045250;28;20402;-58
2023/10/30 10:00:21;;;;;;;10.87;2.00;;;;;;;;;;5044754;28;20398;-58
2023/10/30 10:02:46;;;;;;;9.30;1.73;;;;;;;;;;5054173;28;20833;-57
2023/10/30 10:05:12;;;;;;;9.13;1.98;;;;;;;;;;5061420;28;20437;-57
2023/10/30 10:07:38;;;;;;;8.38;1.60;;;;;;;;;;5062084;28;20395;-58
2023/10/30 10:10:03;;;;;;;7.30;1.87;;;;;;;;;;5057398;28;20403;-58
2023/10/30 10:12:29;;;;;;;9.87;2.10;;;;;;;;;;5044561;28;20537;-58
2023/10/30 10:14:55;;;;;;;9.85;2.10;;;;;;;;;;5062065;28;20456;-58
2023/10/30 10:17:20;;;;;;;6.83;1.47;;;;;;;;;;5057678;28;20851;-58
2023/10/30 10:19:46;;;;;;;5.90;1.70;;;;;;;;;;5054343;28;20772;-58
2023/10/30 10:22:11;;;;;;;8.65;1.90;;;;;;;;;;5062610;28;20565;-58
2023/10/30 10:24:36;;;;;;;8.23;2.00;;;;;;;;;;5043377;28;20912;-57
2023/10/30 10:27:08;;;;;;;6.43;1.60;;;;;;;;;;5058719;28;20412;-58
2023/10/30 10:29:33;;;;;;;9.38;2.08;;;;;;;;;;5062186;28;20439;-58
2023/10/30 10:31:59;;;;;;;10.85;2.00;;;;;;;;;;5063058;28;20402;-58
2023/10/30 10:34:24;;;;;;;12.32;2.20;;;;;;;;;;5056341;28;20451;-58
2023/10/30 10:36:49;;;;;;;7.60;1.87;;;;;;;;;;5063040;28;20415;-58
2023/10/30 10:39:14;;;;;;;10.53;2.13;;;;;;;;;;5059320;28;20397;-58
2023/10/30 10:41:41;;;;;;;11.53;2.17;;;;;;;;;;5058418;28;20765;-58
2023/10/30 10:44:06;;;;;;;8.70;2.00;;;;;;;;;;5060541;28;20407;-58
2023/10/30 10:46:32;;;;;;;8.93;2.00;;;;;;;;;;5057380;28;20396;-58
2023/10/30 10:48:57;;;;;;;10.27;1.90;;;;;;;;;;5059313;28;20395;-58
2023/10/30 10:51:29;;;;;;;9.67;2.00;;;;;;;;;;5059131;28;20397;-58
2023/10/30 10:53:54;;;;;;;9.52;2.28;;;;;;;;;;5044308;28;21468;-58
2023/10/30 10:56:20;;;;;;;9.93;1.87;;;;;;;;;;5044463;28;20874;-58
2023/10/30 10:58:47;;;;;;;9.37;2.00;;;;;;;;;;5056897;28;20465;-58
2023/10/30 11:01:16;;;;;;;10.77;2.17;;;;;;;;;;5043627;28;20395;-59
2023/10/30 11:03:41;;;;;;;10.50;1.80;;;;;;;;;;5046579;28;20496;-58
2023/10/30 11:06:07;;;;;;;8.93;1.87;;;;;;;;;;5044581;28;20406;-58
2023/10/30 11:08:41;;;;;;;7.38;1.90;;;;;;;;;;5044175;28;20450;-58
2023/10/30 11:11:09;;;;;;;9.07;2.00;;;;;;;;;;5044993;28;20406;-59
2023/10/30 11:13:49;;;;;;;7.50;1.90;;;;;;;;;;5045130;28;20402;-58
2023/10/30 11:16:17;;;;;;;10.82;1.90;;;;;;;;;;5043651;28;20424;-58
2023/10/30 11:18:42;;;;;;;9.65;1.92;;;;;;;;;;5050293;28;20397;-58
2023/10/30 11:21:09;;;;;;;10.43;2.20;;;;;;;;;;5049613;28;20483;-59
2023/10/30 11:23:44;;;;;;;6.22;1.67;;;;;;;;;;5048381;28;20408;-58
2023/10/30 11:26:10;;;;;;;8.73;1.98;;;;;;;;;;5048026;28;20867;-59
2023/10/30 11:28:36;;;;;;;10.38;2.03;;;;;;;;;;5049463;28;20888;-58
2023/10/30 11:31:02;;;;;;;10.07;2.35;;;;;;;;;;5049196;28;20547;-59
2023/10/30 11:33:30;;;;;;;9.55;1.95;;;;;;;;;;5046173;28;20484;-58
2023/10/30 11:36:14;;;;;;;7.00;1.70;;;;;;;;;;5048126;28;20413;-58
2023/10/30 11:38:57;;;;;;;10.17;1.83;;;;;;;;;;5049290;28;20401;-58
2023/10/30 11:41:24;;;;;;;7.28;1.80;;;;;;;;;;5049387;28;20783;-58
2023/10/30 11:43:49;;;;;;;8.60;2.33;;;;;;;;;;5047387;28;20460;-58
2023/10/30 11:46:16;;;;;;;8.70;1.93;;;;;;;;;;5048919;28;20417;-58
2023/10/30 11:48:41;;;;;;;7.13;1.60;;;;;;;;;;5049882;28;20398;-58
2023/10/30 11:51:07;;;;;;;10.53;1.90;;;;;;;;;;5046746;28;20404;-59
2023/10/30 11:53:33;;;;;;;10.77;2.27;;;;;;;;;;5049334;28;20447;-58
2023/10/30 11:55:58;;;;;;;7.35;1.70;;;;;;;;;;5048489;28;20449;-58
2023/10/30 11:58:23;;;;;;;9.27;2.00;;;;;;;;;;5046873;28;20459;-58
2023/10/30 12:00:48;;;;;;;7.83;1.77;;;;;;;;;;5047864;28;20501;-58
2023/10/30 12:03:14;;;;;;;8.37;1.73;;;;;;;;;;5049132;28;20780;-59
2023/10/30 12:05:39;;;;;;;7.40;1.80;;;;;;;;;;5048489;28;20432;-58
2023/10/30 12:08:04;;;;;;;7.97;1.77;;;;;;;;;;5045805;28;20913;-59
2023/10/30 12:10:30;;;;;;;6.77;1.73;;;;;;;;;;5049677;28;20401;-58
2023/10/30 12:12:56;;;;;;;8.23;2.03;;;;;;;;;;5048875;28;20410;-58
2023/10/30 12:15:21;;;;;;;8.60;1.60;;;;;;;;;;5045511;28;20400;-58
2023/10/30 12:17:46;;;;;;;8.93;1.83;;;;;;;;;;5048788;28;20401;-58
2023/10/30 12:20:11;;;;;;;7.33;1.60;;;;;;;;;;5048844;28;20451;-58
2023/10/30 12:22:41;;;;;;;9.63;1.70;;;;;;;;;;5047463;28;20413;-58
2023/10/30 12:25:07;;;;;;;7.65;1.40;;;;;;;;;;5047316;28;20413;-59
2023/10/30 12:27:33;;;;;;;8.77;2.17;;;;;;;;;;5048477;28;20405;-58
2023/10/30 12:30:00;;;;;;;7.07;1.77;;;;;;;;;;5047287;28;20411;-58
2023/10/30 12:32:29;;;;;;;6.75;1.73;;;;;;;;;;5044819;28;20484;-58
2023/10/30 12:34:54;;;;;;;7.90;1.90;;;;;;;;;;5048655;28;20436;-58
2023/10/30 12:37:20;;;;;;;9.07;1.87;;;;;;;;;;5048672;28;20432;-58
2023/10/30 12:40:03;;;;;;;7.28;1.50;;;;;;;;;;5045940;28;20883;-58
2023/10/30 12:42:29;;;;;;;6.60;1.70;;;;;;;;;;5033838;28;20416;-58
2023/10/30 12:44:54;;;;;;;8.03;1.40;;;;;;;;;;5046190;28;20409;-58
2023/10/30 12:47:20;;;;;;;5.33;1.20;;;;;;;;;;5045755;28;20455;-58
2023/10/30 12:49:45;;;;;;;5.78;1.20;;;;;;;;;;5047288;28;20764;-58
2023/10/30 12:52:10;;;;;;;6.63;1.83;;;;;;;;;;5048302;28;20397;-57
2023/10/30 12:54:36;;;;;;;7.47;1.60;;;;;;;;;;5045171;28;20761;-57
2023/10/30 12:57:01;;;;;;;5.07;1.40;;;;;;;;;;5045764;28;20911;-58
2023/10/30 12:59:26;;;;;;;6.80;1.60;;;;;;;;;;5047970;28;20404;-57
2023/10/30 13:01:52;;;;;;;5.17;1.30;;;;;;;;;;5047764;28;20433;-57
2023/10/30 13:04:17;;;;;;;5.03;1.30;;;;;;;;;;5042611;28;20413;-57
2023/10/30 13:06:42;;;;;;;6.60;1.30;;;;;;;;;;5044893;28;20405;-57
2023/10/30 13:09:08;;;;;;;5.38;1.50;;;;;;;;;;5047459;28;20523;-57
2023/10/30 13:11:33;;;;;;;7.13;1.30;;;;;;;;;;5046052;28;20962;-57
2023/10/30 13:13:58;;;;;;;5.57;1.50;;;;;;;;;;5047381;28;20927;-57
2023/10/30 13:16:23;;;;;;;5.57;1.27;;;;;;;;;;5047944;28;20402;-57
2023/10/30 13:18:49;;;;;;;6.73;1.50;;;;;;;;;;5047307;28;21280;-57
2023/10/30 13:21:14;;;;;;;7.30;1.37;;;;;;;;;;5050485;28;20462;-57
2023/10/30 13:23:40;;;;;;;5.40;1.30;;;;;;;;;;5049720;28;20401;-57
2023/10/30 13:26:05;;;;;;;4.97;1.30;;;;;;;;;;5046762;28;20410;-56
2023/10/30 13:28:30;;;;;;;6.87;1.30;;;;;;;;;;5050253;28;20385;-57
2023/10/30 13:30:56;;;;;;;6.40;1.40;;;;;;;;;;5050521;28;20393;-56
2023/10/30 13:33:21;;;;;;;9.40;2.27;;;;;;;;;;5050414;28;20497;-57
2023/10/30 13:35:46;;;;;;;7.70;1.60;;;;;;;;;;5050165;28;20470;-57
2023/10/30 13:38:12;;;;;;;5.72;1.70;;;;;;;;;;5050038;28;20398;-57
2023/10/30 13:40:37;;;;;;;5.20;1.30;;;;;;;;;;5045765;28;20408;-56
2023/10/30 13:43:03;;;;;;;6.83;1.60;;;;;;;;;;5047355;28;20416;-57
2023/10/30 13:45:28;;;;;;;8.60;1.55;;;;;;;;;;5046347;28;20393;-57
2023/10/30 13:47:54;;;;;;;8.40;1.90;;;;;;;;;;5045790;28;21046;-57
2023/10/30 13:50:19;;;;;;;7.00;1.33;;;;;;;;;;5046656;28;20416;-57
2023/10/30 13:52:44;;;;;;;8.70;1.67;;;;;;;;;;5047295;28;20401;-57
2023/10/30 13:55:10;;;;;;;5.80;1.30;;;;;;;;;;5044523;28;20425;-57
2023/10/30 13:57:35;;;;;;;6.10;1.47;;;;;;;;;;5046879;28;20904;-57
2023/10/30 14:00:05;;;;;;;5.43;1.40;;;;;;;;;;5045186;28;20405;-59
2023/10/30 14:02:30;;;;;;;6.47;1.50;;;;;;;;;;5045706;28;20397;-58
2023/10/30 14:04:56;;;;;;;6.80;1.30;;;;;;;;;;5046156;28;20935;-57
2023/10/30 14:07:21;;;;;;;5.68;1.42;;;;;;;;;;5046613;28;22162;-57
2023/10/30 14:09:46;;;;;;;6.40;1.60;;;;;;;;;;5045232;28;20405;-57
2023/10/30 14:12:11;;;;;;;6.20;1.40;;;;;;;;;;5043442;28;20414;-57
2023/10/30 14:14:37;;;;;;;7.93;1.27;;;;;;;;;;5046580;28;20425;-57
2023/10/30 14:17:02;;;;;;;8.63;1.53;;;;;;;;;;5046494;28;20769;-57
2023/10/30 14:19:27;;;;;;;6.77;1.30;;;;;;;;;;5043566;28;20389;-57
2023/10/30 14:21:53;;;;;;;7.40;1.87;;;;;;;;;;5046754;28;20408;-56
2023/10/30 14:24:18;;;;;;;7.70;3.17;;;;;;;;;;5046575;28;20876;-57
2023/10/30 14:26:43;;;;;;;6.13;1.57;;;;;;;;;;5043435;28;20413;-56
2023/10/30 14:29:09;;;;;;;6.77;1.60;;;;;;;;;;5045203;28;20416;-57
2023/10/30 14:31:34;;;;;;;5.78;1.15;;;;;;;;;;5040385;28;20432;-57